sensor_id;sensor_type;location;lat;lon;timestamp;temperature;humidity
52189;DHT22;38162;45.926;13.608;2022-07-03T00:01:19;27.70;54.70
52189;DHT22;38162;45.926;13.608;2022-07-03T00:03:45;27.70;54.10
52189;DHT22;38162;45.926;13.608;2022-07-03T00:06:11;27.70;53.80
52189;DHT22;38162;45.926;13.608;2022-07-03T00:08:37;27.70;54.20
52189;DHT22;38162;45.926;13.608;2022-07-03T00:11:04;27.70;54.10
52189;DHT22;38162;45.926;13.608;2022-07-03T00:13:30;27.70;53.80
52189;DHT22;38162;45.926;13.608;2022-07-03T00:15:56;27.60;54.00
52189;DHT22;38162;45.926;13.608;2022-07-03T00:18:22;27.60;53.70
52189;DHT22;38162;45.926;13.608;2022-07-03T00:20:49;27.60;53.70
52189;DHT22;38162;45.926;13.608;2022-07-03T00:23:21;27.50;53.60
52189;DHT22;38162;45.926;13.608;2022-07-03T00:25:49;27.50;53.70
52189;DHT22;38162;45.926;13.608;2022-07-03T00:28:16;27.50;53.50
52189;DHT22;38162;45.926;13.608;2022-07-03T00:30:46;27.50;53.40
52189;DHT22;38162;45.926;13.608;2022-07-03T00:33:14;27.40;53.60
52189;DHT22;38162;45.926;13.608;2022-07-03T00:35:43;27.40;53.90
52189;DHT22;38162;45.926;13.608;2022-07-03T00:38:12;27.40;53.90
52189;DHT22;38162;45.926;13.608;2022-07-03T00:40:38;27.40;53.50
52189;DHT22;38162;45.926;13.608;2022-07-03T00:43:04;27.40;53.50
52189;DHT22;38162;45.926;13.608;2022-07-03T00:45:33;27.40;53.40
52189;DHT22;38162;45.926;13.608;2022-07-03T00:48:00;27.30;53.40
52189;DHT22;38162;45.926;13.608;2022-07-03T00:50:34;27.30;53.30
52189;DHT22;38162;45.926;13.608;2022-07-03T00:53:01;27.30;53.10
52189;DHT22;38162;45.926;13.608;2022-07-03T00:55:28;27.30;53.10
52189;DHT22;38162;45.926;13.608;2022-07-03T00:57:56;27.30;53.00
52189;DHT22;38162;45.926;13.608;2022-07-03T01:00:22;27.30;52.90
52189;DHT22;38162;45.926;13.608;2022-07-03T01:03:18;27.30;52.80
52189;DHT22;38162;45.926;13.608;2022-07-03T01:05:49;27.30;52.70
52189;DHT22;38162;45.926;13.608;2022-07-03T01:08:49;27.30;52.10
52189;DHT22;38162;45.926;13.608;2022-07-03T01:11:37;27.30;51.90
52189;DHT22;38162;45.926;13.608;2022-07-03T01:16:59;27.30;52.50
52189;DHT22;38162;45.926;13.608;2022-07-03T01:19:35;27.30;52.10
52189;DHT22;38162;45.926;13.608;2022-07-03T01:22:06;27.20;51.80
52189;DHT22;38162;45.926;13.608;2022-07-03T01:27:35;27.20;51.90
52189;DHT22;38162;45.926;13.608;2022-07-03T01:30:10;27.20;51.60
52189;DHT22;38162;45.926;13.608;2022-07-03T01:32:49;27.20;51.60
52189;DHT22;38162;45.926;13.608;2022-07-03T01:35:21;27.20;51.40
52189;DHT22;38162;45.926;13.608;2022-07-03T01:37:48;27.10;52.20
52189;DHT22;38162;45.926;13.608;2022-07-03T01:40:17;27.10;51.60
52189;DHT22;38162;45.926;13.608;2022-07-03T01:42:44;27.10;51.60
52189;DHT22;38162;45.926;13.608;2022-07-03T01:45:13;27.10;51.60
52189;DHT22;38162;45.926;13.608;2022-07-03T01:47:41;27.10;51.50
52189;DHT22;38162;45.926;13.608;2022-07-03T01:50:12;27.10;51.20
52189;DHT22;38162;45.926;13.608;2022-07-03T01:52:41;27.00;51.20
52189;DHT22;38162;45.926;13.608;2022-07-03T01:55:13;27.00;51.20
52189;DHT22;38162;45.926;13.608;2022-07-03T01:57:47;27.00;51.10
52189;DHT22;38162;45.926;13.608;2022-07-03T02:00:16;27.00;51.10
52189;DHT22;38162;45.926;13.608;2022-07-03T02:02:52;27.00;51.20
52189;DHT22;38162;45.926;13.608;2022-07-03T02:05:37;27.00;50.60
52189;DHT22;38162;45.926;13.608;2022-07-03T02:10:40;27.00;50.60
52189;DHT22;38162;45.926;13.608;2022-07-03T02:13:24;27.00;50.80
52189;DHT22;38162;45.926;13.608;2022-07-03T02:15:53;27.00;51.30
52189;DHT22;38162;45.926;13.608;2022-07-03T02:18:32;27.00;51.10
52189;DHT22;38162;45.926;13.608;2022-07-03T02:21:07;27.00;51.30
52189;DHT22;38162;45.926;13.608;2022-07-03T02:23:45;27.00;51.60
52189;DHT22;38162;45.926;13.608;2022-07-03T02:26:15;27.00;51.50
52189;DHT22;38162;45.926;13.608;2022-07-03T02:29:06;27.00;51.70
52189;DHT22;38162;45.926;13.608;2022-07-03T02:31:45;27.00;51.40
52189;DHT22;38162;45.926;13.608;2022-07-03T02:34:15;27.00;51.30
52189;DHT22;38162;45.926;13.608;2022-07-03T02:36:45;27.00;51.30
52189;DHT22;38162;45.926;13.608;2022-07-03T02:39:16;27.00;51.30
52189;DHT22;38162;45.926;13.608;2022-07-03T02:41:53;26.90;51.40
52189;DHT22;38162;45.926;13.608;2022-07-03T02:44:46;26.90;52.30
52189;DHT22;38162;45.926;13.608;2022-07-03T02:50:08;26.80;51.60
52189;DHT22;38162;45.926;13.608;2022-07-03T02:52:49;26.80;52.30
52189;DHT22;38162;45.926;13.608;2022-07-03T03:03:27;26.60;52.30
52189;DHT22;38162;45.926;13.608;2022-07-03T03:05:56;26.60;52.60
52189;DHT22;38162;45.926;13.608;2022-07-03T03:08:39;26.60;53.40
52189;DHT22;38162;45.926;13.608;2022-07-03T03:11:10;26.50;53.30
52189;DHT22;38162;45.926;13.608;2022-07-03T03:13:38;26.50;53.20
52189;DHT22;38162;45.926;13.608;2022-07-03T03:16:11;26.40;54.00
52189;DHT22;38162;45.926;13.608;2022-07-03T03:18:39;26.50;53.70
52189;DHT22;38162;45.926;13.608;2022-07-03T03:21:09;26.40;53.30
52189;DHT22;38162;45.926;13.608;2022-07-03T03:24:01;26.40;53.20
52189;DHT22;38162;45.926;13.608;2022-07-03T03:26:27;26.40;53.00
52189;DHT22;38162;45.926;13.608;2022-07-03T03:28:54;26.40;53.60
52189;DHT22;38162;45.926;13.608;2022-07-03T03:31:20;26.40;53.20
52189;DHT22;38162;45.926;13.608;2022-07-03T03:33:50;26.30;53.60
52189;DHT22;38162;45.926;13.608;2022-07-03T03:36:17;26.30;53.90
52189;DHT22;38162;45.926;13.608;2022-07-03T03:38:43;26.30;54.00
52189;DHT22;38162;45.926;13.608;2022-07-03T03:41:10;26.30;54.10
52189;DHT22;38162;45.926;13.608;2022-07-03T03:43:36;26.30;53.70
52189;DHT22;38162;45.926;13.608;2022-07-03T03:46:02;26.30;53.50
52189;DHT22;38162;45.926;13.608;2022-07-03T03:48:29;26.30;53.30
52189;DHT22;38162;45.926;13.608;2022-07-03T03:50:56;26.30;53.20
52189;DHT22;38162;45.926;13.608;2022-07-03T03:53:24;26.30;53.10
52189;DHT22;38162;45.926;13.608;2022-07-03T03:55:54;26.30;53.10
52189;DHT22;38162;45.926;13.608;2022-07-03T03:58:19;26.30;53.00
52189;DHT22;38162;45.926;13.608;2022-07-03T04:00:45;26.30;53.10
52189;DHT22;38162;45.926;13.608;2022-07-03T04:03:11;26.30;53.50
52189;DHT22;38162;45.926;13.608;2022-07-03T04:05:37;26.30;53.40
52189;DHT22;38162;45.926;13.608;2022-07-03T04:08:03;26.30;53.20
52189;DHT22;38162;45.926;13.608;2022-07-03T04:10:28;26.30;53.70
52189;DHT22;38162;45.926;13.608;2022-07-03T04:12:54;26.30;53.30
52189;DHT22;38162;45.926;13.608;2022-07-03T04:15:20;26.30;54.00
52189;DHT22;38162;45.926;13.608;2022-07-03T04:17:45;26.30;53.70
52189;DHT22;38162;45.926;13.608;2022-07-03T04:20:11;26.30;53.60
52189;DHT22;38162;45.926;13.608;2022-07-03T04:22:37;26.30;54.00
52189;DHT22;38162;45.926;13.608;2022-07-03T04:25:03;26.30;54.40
52189;DHT22;38162;45.926;13.608;2022-07-03T04:27:28;26.30;55.10
52189;DHT22;38162;45.926;13.608;2022-07-03T04:29:55;26.30;55.70
52189;DHT22;38162;45.926;13.608;2022-07-03T04:32:21;26.30;58.30
52189;DHT22;38162;45.926;13.608;2022-07-03T04:34:46;26.30;58.20
52189;DHT22;38162;45.926;13.608;2022-07-03T04:37:12;26.30;59.10
52189;DHT22;38162;45.926;13.608;2022-07-03T04:39:37;26.30;57.80
52189;DHT22;38162;45.926;13.608;2022-07-03T04:42:03;26.30;58.10
52189;DHT22;38162;45.926;13.608;2022-07-03T04:44:29;26.40;58.50
52189;DHT22;38162;45.926;13.608;2022-07-03T04:46:55;26.30;58.70
52189;DHT22;38162;45.926;13.608;2022-07-03T04:49:21;26.40;58.00
52189;DHT22;38162;45.926;13.608;2022-07-03T04:51:46;26.40;57.80
52189;DHT22;38162;45.926;13.608;2022-07-03T04:54:12;26.50;57.50
52189;DHT22;38162;45.926;13.608;2022-07-03T04:56:38;26.40;57.70
52189;DHT22;38162;45.926;13.608;2022-07-03T04:59:03;26.40;57.50
52189;DHT22;38162;45.926;13.608;2022-07-03T05:01:29;26.40;56.80
52189;DHT22;38162;45.926;13.608;2022-07-03T05:03:54;26.50;55.80
52189;DHT22;38162;45.926;13.608;2022-07-03T05:06:20;26.40;55.50
52189;DHT22;38162;45.926;13.608;2022-07-03T05:08:46;26.40;55.10
52189;DHT22;38162;45.926;13.608;2022-07-03T05:11:11;26.50;55.70
52189;DHT22;38162;45.926;13.608;2022-07-03T05:13:37;26.50;55.70
52189;DHT22;38162;45.926;13.608;2022-07-03T05:16:03;26.50;55.20
52189;DHT22;38162;45.926;13.608;2022-07-03T05:18:29;26.60;55.50
52189;DHT22;38162;45.926;13.608;2022-07-03T05:20:54;26.60;55.00
52189;DHT22;38162;45.926;13.608;2022-07-03T05:23:20;26.60;54.60
52189;DHT22;38162;45.926;13.608;2022-07-03T05:25:46;26.60;54.90
52189;DHT22;38162;45.926;13.608;2022-07-03T05:28:11;26.60;54.50
52189;DHT22;38162;45.926;13.608;2022-07-03T05:30:37;26.70;55.10
52189;DHT22;38162;45.926;13.608;2022-07-03T05:33:03;26.70;55.50
52189;DHT22;38162;45.926;13.608;2022-07-03T05:35:28;26.70;55.60
52189;DHT22;38162;45.926;13.608;2022-07-03T05:37:54;26.70;55.40
52189;DHT22;38162;45.926;13.608;2022-07-03T05:40:20;26.80;54.70
52189;DHT22;38162;45.926;13.608;2022-07-03T05:42:46;26.90;53.70
52189;DHT22;38162;45.926;13.608;2022-07-03T05:45:11;26.90;52.90
52189;DHT22;38162;45.926;13.608;2022-07-03T05:47:37;27.00;52.70
52189;DHT22;38162;45.926;13.608;2022-07-03T05:50:03;27.00;52.70
52189;DHT22;38162;45.926;13.608;2022-07-03T05:52:29;27.00;53.00
52189;DHT22;38162;45.926;13.608;2022-07-03T05:54:54;27.00;53.30
52189;DHT22;38162;45.926;13.608;2022-07-03T05:57:20;27.10;53.30
52189;DHT22;38162;45.926;13.608;2022-07-03T05:59:47;27.10;52.50
52189;DHT22;38162;45.926;13.608;2022-07-03T06:02:12;27.10;52.10
52189;DHT22;38162;45.926;13.608;2022-07-03T06:04:38;27.20;51.90
52189;DHT22;38162;45.926;13.608;2022-07-03T06:07:04;27.20;51.60
52189;DHT22;38162;45.926;13.608;2022-07-03T06:09:29;27.30;51.50
52189;DHT22;38162;45.926;13.608;2022-07-03T06:11:55;27.40;51.20
52189;DHT22;38162;45.926;13.608;2022-07-03T06:14:21;27.40;51.10
52189;DHT22;38162;45.926;13.608;2022-07-03T06:16:47;27.40;51.60
52189;DHT22;38162;45.926;13.608;2022-07-03T06:19:13;27.40;51.30
52189;DHT22;38162;45.926;13.608;2022-07-03T06:21:38;27.40;51.10
52189;DHT22;38162;45.926;13.608;2022-07-03T06:24:04;27.50;51.40
52189;DHT22;38162;45.926;13.608;2022-07-03T06:26:30;27.50;51.50
52189;DHT22;38162;45.926;13.608;2022-07-03T06:28:56;27.50;50.70
52189;DHT22;38162;45.926;13.608;2022-07-03T06:31:22;27.60;50.80
52189;DHT22;38162;45.926;13.608;2022-07-03T06:33:47;27.60;50.50
52189;DHT22;38162;45.926;13.608;2022-07-03T06:36:13;27.60;50.20
52189;DHT22;38162;45.926;13.608;2022-07-03T06:38:39;27.70;50.80
52189;DHT22;38162;45.926;13.608;2022-07-03T06:41:04;27.70;51.20
52189;DHT22;38162;45.926;13.608;2022-07-03T06:43:30;27.70;51.00
52189;DHT22;38162;45.926;13.608;2022-07-03T06:45:56;27.80;50.80
52189;DHT22;38162;45.926;13.608;2022-07-03T06:48:21;27.80;51.00
52189;DHT22;38162;45.926;13.608;2022-07-03T06:50:47;27.80;51.20
52189;DHT22;38162;45.926;13.608;2022-07-03T06:53:13;27.90;51.70
52189;DHT22;38162;45.926;13.608;2022-07-03T06:55:38;27.90;51.30
52189;DHT22;38162;45.926;13.608;2022-07-03T06:58:04;28.00;51.70
52189;DHT22;38162;45.926;13.608;2022-07-03T07:00:30;28.00;52.40
52189;DHT22;38162;45.926;13.608;2022-07-03T07:02:56;28.10;51.50
52189;DHT22;38162;45.926;13.608;2022-07-03T07:05:21;28.10;51.50
52189;DHT22;38162;45.926;13.608;2022-07-03T07:07:48;28.20;52.40
52189;DHT22;38162;45.926;13.608;2022-07-03T07:10:14;28.20;52.20
52189;DHT22;38162;45.926;13.608;2022-07-03T07:12:39;28.20;51.70
52189;DHT22;38162;45.926;13.608;2022-07-03T07:15:05;28.30;51.80
52189;DHT22;38162;45.926;13.608;2022-07-03T07:17:31;28.30;51.60
52189;DHT22;38162;45.926;13.608;2022-07-03T07:19:57;28.30;51.30
52189;DHT22;38162;45.926;13.608;2022-07-03T07:22:23;28.40;51.10
52189;DHT22;38162;45.926;13.608;2022-07-03T07:24:51;28.40;50.00
52189;DHT22;38162;45.926;13.608;2022-07-03T07:27:16;28.40;50.20
52189;DHT22;38162;45.926;13.608;2022-07-03T07:29:42;28.40;50.10
52189;DHT22;38162;45.926;13.608;2022-07-03T07:32:08;28.50;49.50
52189;DHT22;38162;45.926;13.608;2022-07-03T07:34:33;28.50;49.60
52189;DHT22;38162;45.926;13.608;2022-07-03T07:36:59;28.60;50.30
52189;DHT22;38162;45.926;13.608;2022-07-03T07:39:25;28.60;51.00
52189;DHT22;38162;45.926;13.608;2022-07-03T07:41:51;28.70;50.80
52189;DHT22;38162;45.926;13.608;2022-07-03T07:44:16;28.70;50.10
52189;DHT22;38162;45.926;13.608;2022-07-03T07:46:42;28.80;49.90
52189;DHT22;38162;45.926;13.608;2022-07-03T07:49:08;28.80;49.50
52189;DHT22;38162;45.926;13.608;2022-07-03T07:51:33;28.90;50.10
52189;DHT22;38162;45.926;13.608;2022-07-03T07:53:59;28.90;50.10
52189;DHT22;38162;45.926;13.608;2022-07-03T07:56:26;29.00;49.90
52189;DHT22;38162;45.926;13.608;2022-07-03T07:58:52;29.00;50.00
52189;DHT22;38162;45.926;13.608;2022-07-03T08:01:21;29.10;49.40
52189;DHT22;38162;45.926;13.608;2022-07-03T08:04:05;29.10;49.70
52189;DHT22;38162;45.926;13.608;2022-07-03T08:06:49;29.20;49.80
52189;DHT22;38162;45.926;13.608;2022-07-03T08:09:15;29.30;49.40
52189;DHT22;38162;45.926;13.608;2022-07-03T08:11:41;29.30;48.80
52189;DHT22;38162;45.926;13.608;2022-07-03T08:14:07;29.40;49.00
52189;DHT22;38162;45.926;13.608;2022-07-03T08:16:34;29.40;48.60
52189;DHT22;38162;45.926;13.608;2022-07-03T08:19:00;29.50;48.80
52189;DHT22;38162;45.926;13.608;2022-07-03T08:21:26;29.50;48.90
52189;DHT22;38162;45.926;13.608;2022-07-03T08:23:52;29.60;48.20
52189;DHT22;38162;45.926;13.608;2022-07-03T08:26:18;29.70;47.70
52189;DHT22;38162;45.926;13.608;2022-07-03T08:28:44;29.70;48.10
52189;DHT22;38162;45.926;13.608;2022-07-03T08:31:09;29.70;48.50
52189;DHT22;38162;45.926;13.608;2022-07-03T08:33:36;29.80;48.70
52189;DHT22;38162;45.926;13.608;2022-07-03T08:36:02;29.90;49.10
52189;DHT22;38162;45.926;13.608;2022-07-03T08:38:31;29.90;48.50
52189;DHT22;38162;45.926;13.608;2022-07-03T08:41:02;30.00;48.00
52189;DHT22;38162;45.926;13.608;2022-07-03T08:43:29;30.10;48.00
52189;DHT22;38162;45.926;13.608;2022-07-03T08:45:56;30.20;48.60
52189;DHT22;38162;45.926;13.608;2022-07-03T08:48:22;30.30;47.90
52189;DHT22;38162;45.926;13.608;2022-07-03T08:50:50;30.30;47.60
52189;DHT22;38162;45.926;13.608;2022-07-03T08:53:17;30.40;47.70
52189;DHT22;38162;45.926;13.608;2022-07-03T08:55:44;30.40;47.40
52189;DHT22;38162;45.926;13.608;2022-07-03T08:58:12;30.50;46.90
52189;DHT22;38162;45.926;13.608;2022-07-03T09:00:38;30.60;46.50
52189;DHT22;38162;45.926;13.608;2022-07-03T09:03:09;30.60;46.90
52189;DHT22;38162;45.926;13.608;2022-07-03T09:05:35;30.70;46.60
52189;DHT22;38162;45.926;13.608;2022-07-03T09:08:02;30.70;46.10
52189;DHT22;38162;45.926;13.608;2022-07-03T09:10:28;30.80;46.10
52189;DHT22;38162;45.926;13.608;2022-07-03T09:12:55;30.90;46.40
52189;DHT22;38162;45.926;13.608;2022-07-03T09:15:21;30.90;45.90
52189;DHT22;38162;45.926;13.608;2022-07-03T09:18:07;30.90;45.80
52189;DHT22;38162;45.926;13.608;2022-07-03T09:20:35;31.00;45.30
52189;DHT22;38162;45.926;13.608;2022-07-03T09:25:58;31.10;45.50
52189;DHT22;38162;45.926;13.608;2022-07-03T09:31:14;31.10;45.10
52189;DHT22;38162;45.926;13.608;2022-07-03T09:34:02;31.20;44.10
52189;DHT22;38162;45.926;13.608;2022-07-03T09:36:44;31.20;43.40
52189;DHT22;38162;45.926;13.608;2022-07-03T09:39:27;31.30;43.70
52189;DHT22;38162;45.926;13.608;2022-07-03T09:44:42;31.30;43.40
52189;DHT22;38162;45.926;13.608;2022-07-03T09:47:17;31.40;44.30
52189;DHT22;38162;45.926;13.608;2022-07-03T09:49:57;31.40;43.70
52189;DHT22;38162;45.926;13.608;2022-07-03T09:52:44;31.40;43.60
52189;DHT22;38162;45.926;13.608;2022-07-03T09:57:41;31.60;43.70
52189;DHT22;38162;45.926;13.608;2022-07-03T10:02:58;31.70;43.90
52189;DHT22;38162;45.926;13.608;2022-07-03T10:05:42;31.80;43.30
52189;DHT22;38162;45.926;13.608;2022-07-03T10:08:13;31.90;43.20
52189;DHT22;38162;45.926;13.608;2022-07-03T10:10:43;31.90;43.50
52189;DHT22;38162;45.926;13.608;2022-07-03T10:13:09;32.00;43.40
52189;DHT22;38162;45.926;13.608;2022-07-03T10:15:37;32.10;43.90
52189;DHT22;38162;45.926;13.608;2022-07-03T10:18:06;32.20;43.30
52189;DHT22;38162;45.926;13.608;2022-07-03T10:23:04;32.30;42.60
52189;DHT22;38162;45.926;13.608;2022-07-03T10:25:31;32.30;43.90
52189;DHT22;38162;45.926;13.608;2022-07-03T10:27:57;32.30;43.00
52189;DHT22;38162;45.926;13.608;2022-07-03T10:30:24;32.30;43.00
52189;DHT22;38162;45.926;13.608;2022-07-03T10:32:51;32.40;43.40
52189;DHT22;38162;45.926;13.608;2022-07-03T10:35:21;32.50;43.30
52189;DHT22;38162;45.926;13.608;2022-07-03T10:37:58;32.50;41.40
52189;DHT22;38162;45.926;13.608;2022-07-03T10:40:34;32.50;41.90
52189;DHT22;38162;45.926;13.608;2022-07-03T10:43:27;32.60;42.30
52189;DHT22;38162;45.926;13.608;2022-07-03T10:51:18;32.80;40.70
52189;DHT22;38162;45.926;13.608;2022-07-03T10:53:44;32.90;40.40
52189;DHT22;38162;45.926;13.608;2022-07-03T10:56:09;32.90;40.10
52189;DHT22;38162;45.926;13.608;2022-07-03T10:58:55;33.00;40.50
52189;DHT22;38162;45.926;13.608;2022-07-03T11:01:30;33.00;40.70
52189;DHT22;38162;45.926;13.608;2022-07-03T11:09:11;33.10;41.30
52189;DHT22;38162;45.926;13.608;2022-07-03T11:24:37;33.50;41.00
52189;DHT22;38162;45.926;13.608;2022-07-03T11:27:23;33.80;39.60
52189;DHT22;38162;45.926;13.608;2022-07-03T11:29:55;33.80;39.50
52189;DHT22;38162;45.926;13.608;2022-07-03T11:32:54;33.80;39.90
52189;DHT22;38162;45.926;13.608;2022-07-03T11:35:48;33.90;39.40
52189;DHT22;38162;45.926;13.608;2022-07-03T11:38:25;33.90;39.20
52189;DHT22;38162;45.926;13.608;2022-07-03T11:40:53;33.90;38.90
52189;DHT22;38162;45.926;13.608;2022-07-03T11:43:19;34.00;39.50
52189;DHT22;38162;45.926;13.608;2022-07-03T11:45:46;34.10;39.20
52189;DHT22;38162;45.926;13.608;2022-07-03T11:48:14;34.10;39.10
52189;DHT22;38162;45.926;13.608;2022-07-03T11:50:42;34.10;37.80
52189;DHT22;38162;45.926;13.608;2022-07-03T11:53:46;34.10;38.80
52189;DHT22;38162;45.926;13.608;2022-07-03T11:56:13;34.10;38.50
52189;DHT22;38162;45.926;13.608;2022-07-03T11:58:51;34.10;39.70
52189;DHT22;38162;45.926;13.608;2022-07-03T12:04:12;34.20;39.10
52189;DHT22;38162;45.926;13.608;2022-07-03T12:06:45;34.20;38.60
52189;DHT22;38162;45.926;13.608;2022-07-03T12:09:22;34.20;38.20
52189;DHT22;38162;45.926;13.608;2022-07-03T12:12:01;34.20;38.40
52189;DHT22;38162;45.926;13.608;2022-07-03T12:14:50;34.30;38.60
52189;DHT22;38162;45.926;13.608;2022-07-03T12:17:23;34.30;38.30
52189;DHT22;38162;45.926;13.608;2022-07-03T12:19:54;34.40;37.70
52189;DHT22;38162;45.926;13.608;2022-07-03T12:25:05;34.30;37.70
52189;DHT22;38162;45.926;13.608;2022-07-03T12:27:38;34.40;37.30
52189;DHT22;38162;45.926;13.608;2022-07-03T12:30:06;34.40;39.20
52189;DHT22;38162;45.926;13.608;2022-07-03T12:32:32;34.40;37.80
52189;DHT22;38162;45.926;13.608;2022-07-03T12:34:58;34.40;38.40
52189;DHT22;38162;45.926;13.608;2022-07-03T12:37:36;34.50;38.10
52189;DHT22;38162;45.926;13.608;2022-07-03T13:39:19;34.50;37.80
52189;DHT22;38162;45.926;13.608;2022-07-03T13:41:44;35.00;36.20
52189;DHT22;38162;45.926;13.608;2022-07-03T13:44:10;34.90;35.50
52189;DHT22;38162;45.926;13.608;2022-07-03T13:46:36;34.90;36.30
52189;DHT22;38162;45.926;13.608;2022-07-03T13:49:02;34.90;36.70
52189;DHT22;38162;45.926;13.608;2022-07-03T13:51:27;34.90;37.10
52189;DHT22;38162;45.926;13.608;2022-07-03T13:53:53;35.00;37.00
52189;DHT22;38162;45.926;13.608;2022-07-03T13:56:19;35.00;36.90
52189;DHT22;38162;45.926;13.608;2022-07-03T13:58:45;35.10;36.60
52189;DHT22;38162;45.926;13.608;2022-07-03T14:01:11;35.10;35.70
52189;DHT22;38162;45.926;13.608;2022-07-03T14:03:37;35.10;35.30
52189;DHT22;38162;45.926;13.608;2022-07-03T14:06:03;35.10;35.40
52189;DHT22;38162;45.926;13.608;2022-07-03T14:08:29;35.00;36.20
52189;DHT22;38162;45.926;13.608;2022-07-03T14:10:55;35.00;36.10
52189;DHT22;38162;45.926;13.608;2022-07-03T14:13:20;35.10;35.00
52189;DHT22;38162;45.926;13.608;2022-07-03T14:15:46;35.00;35.30
52189;DHT22;38162;45.926;13.608;2022-07-03T14:18:12;35.00;35.50
52189;DHT22;38162;45.926;13.608;2022-07-03T14:20:37;35.00;35.90
52189;DHT22;38162;45.926;13.608;2022-07-03T14:23:03;35.00;35.90
52189;DHT22;38162;45.926;13.608;2022-07-03T14:25:29;34.90;35.40
52189;DHT22;38162;45.926;13.608;2022-07-03T14:27:55;34.90;35.60
52189;DHT22;38162;45.926;13.608;2022-07-03T14:30:39;34.90;36.40
52189;DHT22;38162;45.926;13.608;2022-07-03T14:33:23;34.90;36.30
52189;DHT22;38162;45.926;13.608;2022-07-03T14:35:49;35.00;36.60
52189;DHT22;38162;45.926;13.608;2022-07-03T14:38:14;35.00;37.20
52189;DHT22;38162;45.926;13.608;2022-07-03T14:40:40;35.00;36.20
52189;DHT22;38162;45.926;13.608;2022-07-03T14:43:06;35.00;36.20
52189;DHT22;38162;45.926;13.608;2022-07-03T14:45:31;35.00;36.00
52189;DHT22;38162;45.926;13.608;2022-07-03T14:47:57;35.00;36.50
52189;DHT22;38162;45.926;13.608;2022-07-03T14:50:23;35.00;36.40
52189;DHT22;38162;45.926;13.608;2022-07-03T14:52:48;35.00;36.30
52189;DHT22;38162;45.926;13.608;2022-07-03T14:55:14;35.00;36.50
52189;DHT22;38162;45.926;13.608;2022-07-03T14:58:01;35.00;36.50
52189;DHT22;38162;45.926;13.608;2022-07-03T15:00:30;35.10;36.40
52189;DHT22;38162;45.926;13.608;2022-07-03T15:03:12;35.10;36.40
52189;DHT22;38162;45.926;13.608;2022-07-03T15:05:41;35.10;36.30
52189;DHT22;38162;45.926;13.608;2022-07-03T15:10:56;35.10;35.70
52189;DHT22;38162;45.926;13.608;2022-07-03T15:13:23;35.00;35.70
52189;DHT22;38162;45.926;13.608;2022-07-03T15:15:49;35.10;36.10
52189;DHT22;38162;45.926;13.608;2022-07-03T15:18:18;35.00;36.30
52189;DHT22;38162;45.926;13.608;2022-07-03T15:20:44;35.00;36.00
52189;DHT22;38162;45.926;13.608;2022-07-03T15:23:10;35.00;36.10
52189;DHT22;38162;45.926;13.608;2022-07-03T15:25:38;35.00;36.10
52189;DHT22;38162;45.926;13.608;2022-07-03T15:28:11;34.90;35.70
52189;DHT22;38162;45.926;13.608;2022-07-03T15:30:38;34.90;35.70
52189;DHT22;38162;45.926;13.608;2022-07-03T15:33:09;34.90;35.70
52189;DHT22;38162;45.926;13.608;2022-07-03T15:35:34;35.00;35.80
52189;DHT22;38162;45.926;13.608;2022-07-03T16:16:21;35.00;35.90
52189;DHT22;38162;45.926;13.608;2022-07-03T16:18:49;35.10;32.20
52189;DHT22;38162;45.926;13.608;2022-07-03T16:21:16;35.00;32.40
52189;DHT22;38162;45.926;13.608;2022-07-03T16:23:44;35.00;32.50
52189;DHT22;38162;45.926;13.608;2022-07-03T16:26:11;35.00;32.70
52189;DHT22;38162;45.926;13.608;2022-07-03T16:28:39;35.10;33.50
52189;DHT22;38162;45.926;13.608;2022-07-03T16:31:05;35.00;33.30
52189;DHT22;38162;45.926;13.608;2022-07-03T16:33:36;35.00;33.40
52189;DHT22;38162;45.926;13.608;2022-07-03T16:36:11;35.00;33.40
52189;DHT22;38162;45.926;13.608;2022-07-03T16:38:45;35.00;33.50
52189;DHT22;38162;45.926;13.608;2022-07-03T16:41:16;35.00;34.00
52189;DHT22;38162;45.926;13.608;2022-07-03T16:43:44;35.00;33.70
52189;DHT22;38162;45.926;13.608;2022-07-03T16:46:11;35.00;33.20
52189;DHT22;38162;45.926;13.608;2022-07-03T16:48:43;34.90;32.90
52189;DHT22;38162;45.926;13.608;2022-07-03T16:51:13;34.90;32.80
52189;DHT22;38162;45.926;13.608;2022-07-03T16:53:40;34.90;32.60
52189;DHT22;38162;45.926;13.608;2022-07-03T16:56:08;34.90;32.90
52189;DHT22;38162;45.926;13.608;2022-07-03T16:58:34;34.80;33.10
52189;DHT22;38162;45.926;13.608;2022-07-03T17:01:05;34.80;36.60
52189;DHT22;38162;45.926;13.608;2022-07-03T17:03:31;34.70;37.90
52189;DHT22;38162;45.926;13.608;2022-07-03T17:05:57;34.70;39.30
52189;DHT22;38162;45.926;13.608;2022-07-03T17:08:23;34.60;42.40
52189;DHT22;38162;45.926;13.608;2022-07-03T17:10:49;34.60;43.00
52189;DHT22;38162;45.926;13.608;2022-07-03T17:13:15;34.50;44.70
52189;DHT22;38162;45.926;13.608;2022-07-03T17:15:44;34.40;45.60
52189;DHT22;38162;45.926;13.608;2022-07-03T17:18:10;34.30;46.60
52189;DHT22;38162;45.926;13.608;2022-07-03T17:20:39;34.20;46.70
52189;DHT22;38162;45.926;13.608;2022-07-03T17:23:17;34.20;47.00
52189;DHT22;38162;45.926;13.608;2022-07-03T17:25:45;34.20;47.90
52189;DHT22;38162;45.926;13.608;2022-07-03T17:28:15;34.10;47.90
52189;DHT22;38162;45.926;13.608;2022-07-03T17:30:47;34.10;48.20
52189;DHT22;38162;45.926;13.608;2022-07-03T17:33:14;34.10;48.40
52189;DHT22;38162;45.926;13.608;2022-07-03T17:35:44;34.00;48.20
52189;DHT22;38162;45.926;13.608;2022-07-03T17:38:15;34.00;47.90
52189;DHT22;38162;45.926;13.608;2022-07-03T17:40:45;34.00;48.20
52189;DHT22;38162;45.926;13.608;2022-07-03T17:43:12;33.90;48.00
52189;DHT22;38162;45.926;13.608;2022-07-03T17:45:39;33.80;48.20
52189;DHT22;38162;45.926;13.608;2022-07-03T17:48:07;33.80;48.10
52189;DHT22;38162;45.926;13.608;2022-07-03T17:50:33;33.80;48.10
52189;DHT22;38162;45.926;13.608;2022-07-03T17:53:00;33.70;48.00
52189;DHT22;38162;45.926;13.608;2022-07-03T17:55:27;33.70;48.30
52189;DHT22;38162;45.926;13.608;2022-07-03T17:57:53;33.60;48.40
52189;DHT22;38162;45.926;13.608;2022-07-03T18:00:24;33.50;48.40
52189;DHT22;38162;45.926;13.608;2022-07-03T18:02:52;33.50;48.30
52189;DHT22;38162;45.926;13.608;2022-07-03T18:05:19;33.50;47.90
52189;DHT22;38162;45.926;13.608;2022-07-03T18:10:31;33.30;47.00
52189;DHT22;38162;45.926;13.608;2022-07-03T18:16:09;33.20;46.80
52189;DHT22;38162;45.926;13.608;2022-07-03T18:18:41;33.10;46.80